Terminal Aerodrome Forecast
Issued by NWS Pittsburgh, PA

Current Version | Previous Version | Graphics & Text | Print | Product List | Glossary On
Versions: 1 2 3 4 5 6 7 8 9 10 11 12 13 14 15 16 17 18 19 20 21 22 23 24 25 26
516
FTUS41 KPBZ 191720
TAFPIT
TAF
KPIT 191720Z 1918/2024 22011G21KT P6SM SCT250
     FM200100 21008KT P6SM SCT250 WS020/23035KT
     FM201600 22010G18KT P6SM SCT040
     FM202200 23008KT P6SM BKN015=

USA.gov is the U.S. government's official web portal to all federal, state and local government web resources and services.